createdAt,value
2022-09-12T00:01:22.251Z,1.00
2022-09-12T00:03:52.714Z,1.40
2022-09-12T00:06:29.703Z,1.20
2022-09-12T00:08:59.354Z,1.30
2022-09-12T00:11:26.766Z,1.20
2022-09-12T00:13:57.720Z,1.30
2022-09-12T00:16:26.423Z,1.40
2022-09-12T00:18:53.594Z,1.60
2022-09-12T00:21:21.401Z,1.47
2022-09-12T00:23:49.098Z,1.30
2022-09-12T00:26:17.905Z,1.47
2022-09-12T00:28:45.679Z,2.00
2022-09-12T00:31:15.896Z,1.60
2022-09-12T00:33:42.938Z,1.60
2022-09-12T00:36:12.637Z,1.60
2022-09-12T00:38:41.849Z,1.70
2022-09-12T00:41:15.978Z,1.87
2022-09-12T00:43:53.178Z,1.80
2022-09-12T00:46:37.276Z,1.70
2022-09-12T00:49:18.749Z,1.97
2022-09-12T00:51:51.359Z,2.00
2022-09-12T00:54:23.946Z,1.40
2022-09-12T00:56:52.741Z,1.90
2022-09-12T00:59:27.501Z,1.80
2022-09-12T01:01:54.631Z,2.10
2022-09-12T01:04:24.483Z,1.57
2022-09-12T01:06:52.612Z,1.60
2022-09-12T01:09:22.712Z,1.63
2022-09-12T01:11:51.565Z,1.53
2022-09-12T01:14:19.371Z,1.70
2022-09-12T01:16:47.275Z,2.33
2022-09-12T01:19:32.125Z,1.87
2022-09-12T01:22:13.481Z,1.70
2022-09-12T01:24:51.946Z,1.90
2022-09-12T01:27:43.926Z,2.33
2022-09-12T01:30:38.878Z,2.03
2022-09-12T01:33:17.553Z,2.40
2022-09-12T01:36:23.210Z,1.90
2022-09-12T01:39:03.326Z,1.93
2022-09-12T01:41:49.862Z,1.70
2022-09-12T01:44:26.040Z,1.73
2022-09-12T01:47:14.472Z,2.10
2022-09-12T01:49:57.235Z,1.77
2022-09-12T01:52:38.213Z,1.73
2022-09-12T01:55:22.658Z,1.90
2022-09-12T01:57:57.431Z,1.43
2022-09-12T02:00:24.858Z,1.70
2022-09-12T02:02:58.465Z,1.60
2022-09-12T02:05:32.438Z,1.80
2022-09-12T02:08:08.028Z,1.70
2022-09-12T02:10:43.383Z,1.30
2022-09-12T02:13:16.790Z,1.30
2022-09-12T02:15:50.729Z,1.83
2022-09-12T02:18:18.603Z,2.10
2022-09-12T02:20:49.099Z,1.50
2022-09-12T02:23:26.593Z,1.50
2022-09-12T02:25:57.841Z,1.73
2022-09-12T02:28:29.910Z,1.67
2022-09-12T02:31:08.485Z,1.70
2022-09-12T02:33:48.407Z,1.73
2022-09-12T02:36:27.531Z,1.87
2022-09-12T02:38:55.801Z,1.40
2022-09-12T02:41:22.943Z,1.50
2022-09-12T02:43:51.520Z,1.60
2022-09-12T02:46:32.003Z,2.17
2022-09-12T02:48:58.662Z,1.63
2022-09-12T02:51:26.497Z,1.37
2022-09-12T02:53:53.393Z,1.73
2022-09-12T02:56:27.006Z,1.77
2022-09-12T02:58:55.329Z,1.63
2022-09-12T03:01:49.399Z,1.40
2022-09-12T03:04:48.017Z,1.57
2022-09-12T03:07:29.894Z,1.70
2022-09-12T03:10:14.923Z,1.30
2022-09-12T03:12:52.431Z,1.63
2022-09-12T03:15:34.860Z,1.53
2022-09-12T03:18:38.954Z,1.13
2022-09-12T03:21:30.576Z,1.37
2022-09-12T03:24:11.106Z,1.60
2022-09-12T03:27:05.345Z,1.40
2022-09-12T03:29:33.149Z,1.50
2022-09-12T03:31:59.624Z,1.50
2022-09-12T03:34:27.722Z,1.20
2022-09-12T03:36:55.486Z,1.60
2022-09-12T03:39:24.397Z,2.00
2022-09-12T03:41:51.241Z,1.53
2022-09-12T03:44:18.022Z,1.50
2022-09-12T03:46:44.848Z,1.70
2022-09-12T03:49:11.977Z,2.20
2022-09-12T03:51:39.744Z,1.90
2022-09-12T03:54:06.843Z,1.40
2022-09-12T03:56:33.370Z,1.57
2022-09-12T03:58:59.883Z,1.30
2022-09-12T04:01:26.436Z,1.70
2022-09-12T04:03:52.993Z,1.87
2022-09-12T04:06:21.759Z,1.60
2022-09-12T04:08:50.446Z,1.83
2022-09-12T04:11:18.947Z,1.97
2022-09-12T04:13:46.775Z,2.23
2022-09-12T04:16:15.002Z,1.50
2022-09-12T04:18:41.575Z,2.00
2022-09-12T04:21:11.149Z,1.73
2022-09-12T04:23:38.048Z,2.10
2022-09-12T04:26:07.938Z,1.80
2022-09-12T04:28:37.222Z,2.30
2022-09-12T04:31:09.316Z,1.90
2022-09-12T04:33:36.508Z,1.70
2022-09-12T04:36:23.146Z,1.73
2022-09-12T04:38:50.720Z,1.70
2022-09-12T04:41:24.242Z,1.90
2022-09-12T04:43:58.101Z,1.53
2022-09-12T04:46:26.189Z,1.90
2022-09-12T04:48:56.585Z,1.73
2022-09-12T04:51:29.588Z,1.60
2022-09-12T04:54:00.414Z,1.87
2022-09-12T04:56:28.725Z,1.50
2022-09-12T04:59:00.414Z,2.20
2022-09-12T05:01:28.715Z,2.77
2022-09-12T05:03:56.666Z,2.17
2022-09-12T05:06:25.691Z,2.20
2022-09-12T05:08:53.393Z,2.30
2022-09-12T05:11:26.614Z,2.60
2022-09-12T05:13:55.218Z,2.47
2022-09-12T05:16:22.853Z,2.87
2022-09-12T05:18:50.265Z,2.27
2022-09-12T05:21:23.138Z,2.57
2022-09-12T05:23:59.472Z,3.40
2022-09-12T05:26:27.083Z,3.00
2022-09-12T05:28:56.246Z,3.20
2022-09-12T05:31:27.783Z,2.93
2022-09-12T05:33:55.922Z,3.20
2022-09-12T05:36:23.946Z,2.73
2022-09-12T05:38:50.703Z,2.67
2022-09-12T05:41:24.997Z,2.70
2022-09-12T05:43:53.830Z,2.67
2022-09-12T05:46:22.364Z,2.57
2022-09-12T05:48:55.112Z,3.07
2022-09-12T05:51:26.828Z,3.13
2022-09-12T05:53:56.062Z,2.60
2022-09-12T05:56:25.158Z,2.23
2022-09-12T05:59:00.289Z,2.40
2022-09-12T06:01:30.052Z,2.27
2022-09-12T06:04:00.724Z,2.00
2022-09-12T06:06:29.488Z,2.20
2022-09-12T06:08:59.016Z,2.30
2022-09-12T06:11:29.259Z,2.10
2022-09-12T06:13:57.510Z,2.30
2022-09-12T06:16:27.093Z,2.43
2022-09-12T06:18:59.418Z,2.27
2022-09-12T06:21:26.811Z,2.40
2022-09-12T06:23:55.230Z,2.60
2022-09-12T06:26:23.466Z,2.80
2022-09-12T06:28:50.537Z,3.03
2022-09-12T06:31:19.847Z,3.50
2022-09-12T06:33:48.783Z,3.47
2022-09-12T06:36:27.091Z,3.42
2022-09-12T06:39:10.585Z,3.20
2022-09-12T06:41:41.600Z,4.07
2022-09-12T06:44:16.335Z,4.70
2022-09-12T06:46:43.149Z,4.40
2022-09-12T06:49:10.328Z,5.13
2022-09-12T06:51:36.997Z,5.00
2022-09-12T06:54:05.329Z,4.47
2022-09-12T06:56:31.928Z,5.40
2022-09-12T06:58:59.543Z,6.32
2022-09-12T07:01:31.539Z,7.00
2022-09-12T07:04:00.532Z,7.05
2022-09-12T07:06:32.563Z,6.75
2022-09-12T07:09:01.023Z,7.05
2022-09-12T07:11:31.820Z,8.70
2022-09-12T07:13:59.859Z,6.60
2022-09-12T07:16:26.512Z,8.10
2022-09-12T07:18:55.634Z,8.48
2022-09-12T07:21:22.943Z,6.97
2022-09-12T07:23:52.068Z,7.00
2022-09-12T07:26:18.973Z,6.63
2022-09-12T07:28:52.034Z,7.55
2022-09-12T07:31:19.344Z,8.60
2022-09-12T07:33:45.994Z,8.18
2022-09-12T07:36:16.173Z,8.88
2022-09-12T07:38:43.890Z,9.18
2022-09-12T07:41:21.096Z,8.40
2022-09-12T07:43:48.314Z,9.60
2022-09-12T07:46:15.431Z,9.27
2022-09-12T07:48:42.071Z,8.25
2022-09-12T07:51:11.314Z,8.32
2022-09-12T07:53:40.803Z,9.00
2022-09-12T07:56:10.321Z,9.38
2022-09-12T07:58:38.265Z,9.13
2022-09-12T08:01:12.893Z,8.60
2022-09-12T08:03:41.483Z,10.10
2022-09-12T08:06:17.827Z,10.27
2022-09-12T08:08:44.343Z,11.65
2022-09-12T08:11:13.007Z,10.15
2022-09-12T08:13:41.733Z,11.73
2022-09-12T08:16:17.012Z,10.85
2022-09-12T08:18:44.295Z,10.13
2022-09-12T08:21:19.483Z,10.55
2022-09-12T08:23:47.017Z,10.18
2022-09-12T08:26:13.929Z,11.20
2022-09-12T08:28:45.561Z,11.10
2022-09-12T08:31:14.433Z,10.68
2022-09-12T08:33:41.647Z,11.45
2022-09-12T08:36:16.610Z,10.13
2022-09-12T08:38:45.614Z,11.07
2022-09-12T08:41:18.049Z,10.40
2022-09-12T08:44:22.198Z,9.82
2022-09-12T08:47:11.292Z,9.77
2022-09-12T08:49:37.714Z,9.27
2022-09-12T08:52:13.148Z,10.35
2022-09-12T08:54:39.839Z,10.70
2022-09-12T08:57:11.708Z,10.50
2022-09-12T08:59:41.814Z,9.88
2022-09-12T09:02:39.670Z,10.25
2022-09-12T09:05:29.872Z,9.55
2022-09-12T09:08:15.481Z,9.60
2022-09-12T09:10:59.689Z,9.95
2022-09-12T09:14:05.623Z,9.73
2022-09-12T09:16:44.756Z,10.33
2022-09-12T09:19:17.418Z,10.00
2022-09-12T09:22:01.140Z,10.33
2022-09-12T09:24:36.974Z,9.60
2022-09-12T09:27:41.985Z,10.33
2022-09-12T09:30:15.885Z,12.00
2022-09-12T09:32:43.898Z,11.83
2022-09-12T09:35:36.360Z,10.70
2022-09-12T09:38:29.117Z,10.97
2022-09-12T09:41:24.478Z,11.00
2022-09-12T09:43:51.181Z,11.20
2022-09-12T09:46:18.750Z,9.73
2022-09-12T09:48:48.797Z,10.60
2022-09-12T09:51:21.339Z,9.40
2022-09-12T09:54:00.878Z,10.20
2022-09-12T09:56:29.206Z,9.10
2022-09-12T09:58:55.799Z,9.17
2022-09-12T10:01:22.602Z,9.00
2022-09-12T10:03:54.569Z,8.60
2022-09-12T10:06:21.012Z,8.43
2022-09-12T10:08:48.978Z,9.30
2022-09-12T10:11:15.593Z,8.53
2022-09-12T10:13:54.543Z,8.50
2022-09-12T10:16:27.815Z,7.43
2022-09-12T10:19:02.762Z,7.40
2022-09-12T10:21:36.304Z,8.10
2022-09-12T10:24:20.616Z,8.87
2022-09-12T10:26:56.607Z,8.33
2022-09-12T10:29:32.183Z,8.70
2022-09-12T10:32:03.181Z,7.93
2022-09-12T10:34:36.390Z,6.93
2022-09-12T10:37:08.519Z,7.53
2022-09-12T10:39:37.683Z,7.03
2022-09-12T10:42:05.579Z,8.10
2022-09-12T10:44:34.447Z,7.27
2022-09-12T10:47:21.150Z,7.80
2022-09-12T10:49:48.261Z,10.50
2022-09-12T10:52:23.896Z,9.07
2022-09-12T10:54:51.523Z,8.80
2022-09-12T10:57:41.750Z,8.90
2022-09-12T11:00:20.456Z,9.77
2022-09-12T11:03:16.006Z,8.40
2022-09-12T11:05:48.346Z,8.03
2022-09-12T11:08:38.975Z,7.20
2022-09-12T11:11:29.336Z,7.03
2022-09-12T11:14:19.946Z,6.50
2022-09-12T11:16:52.699Z,6.50
2022-09-12T11:19:50.902Z,5.80
2022-09-12T11:22:38.530Z,6.33
2022-09-12T11:25:14.423Z,6.00
2022-09-12T11:28:18.448Z,5.67
2022-09-12T11:31:07.037Z,5.60
2022-09-12T11:33:45.956Z,4.40
2022-09-12T11:36:25.941Z,5.50
2022-09-12T11:39:03.214Z,4.60
2022-09-12T11:41:39.840Z,4.30
2022-09-12T11:44:22.228Z,5.10
2022-09-12T11:46:51.953Z,4.13
2022-09-12T11:49:26.731Z,4.40
2022-09-12T11:52:16.573Z,4.70
2022-09-12T11:55:00.774Z,3.40
2022-09-12T11:57:50.588Z,5.00
2022-09-12T12:00:20.595Z,4.17
2022-09-12T12:03:13.990Z,4.57
2022-09-12T12:05:43.229Z,4.73
2022-09-12T12:08:11.285Z,5.30
2022-09-12T12:10:43.379Z,5.10
2022-09-12T12:13:26.315Z,4.40
2022-09-12T12:16:00.843Z,4.67
2022-09-12T12:18:29.771Z,5.73
2022-09-12T12:21:16.012Z,4.00
2022-09-12T12:24:01.909Z,4.77
2022-09-12T12:26:40.595Z,6.70
2022-09-12T12:29:17.876Z,5.90
2022-09-12T12:32:01.852Z,4.87
2022-09-12T12:34:38.603Z,4.43
2022-09-12T12:37:23.332Z,4.00
2022-09-12T12:39:50.738Z,4.87
2022-09-12T12:42:32.612Z,4.07
2022-09-12T12:44:59.909Z,4.20
2022-09-12T12:47:31.943Z,4.20
2022-09-12T12:50:05.474Z,4.40
2022-09-12T12:52:46.849Z,4.80
2022-09-12T12:55:35.221Z,4.20
2022-09-12T12:58:07.092Z,4.20
2022-09-12T13:00:36.686Z,3.77
2022-09-12T13:03:06.515Z,3.43
2022-09-12T13:05:50.317Z,3.37
2022-09-12T13:08:16.751Z,3.03
2022-09-12T13:10:56.881Z,3.07
2022-09-12T13:13:28.519Z,3.40
2022-09-12T13:15:55.330Z,2.90
2022-09-12T13:18:27.719Z,2.30
2022-09-12T13:21:19.266Z,2.50
2022-09-12T13:24:02.043Z,1.90
2022-09-12T13:26:33.942Z,2.80
2022-09-12T13:29:17.905Z,3.00
2022-09-12T13:32:01.224Z,2.50
2022-09-12T13:34:37.598Z,2.80
2022-09-12T13:37:16.162Z,2.57
2022-09-12T13:40:11.759Z,2.40
2022-09-12T13:42:51.148Z,2.47
2022-09-12T13:45:21.898Z,2.53
2022-09-12T13:48:16.907Z,1.70
2022-09-12T13:50:52.294Z,2.57
2022-09-12T13:53:23.738Z,2.60
2022-09-12T13:55:55.365Z,2.10
2022-09-12T13:58:21.838Z,2.03
2022-09-12T14:01:05.854Z,3.10
2022-09-12T14:03:58.963Z,2.20
2022-09-12T14:06:27.500Z,2.63
2022-09-12T14:09:01.264Z,2.80
2022-09-12T14:11:30.245Z,2.80
2022-09-12T14:13:57.718Z,2.70
2022-09-12T14:16:27.268Z,2.03
2022-09-12T14:18:54.194Z,1.90
2022-09-12T14:21:34.142Z,1.57
2022-09-12T14:24:02.380Z,1.70
2022-09-12T14:26:34.074Z,2.00
2022-09-12T14:29:02.030Z,1.60
2022-09-12T14:31:36.802Z,1.50
2022-09-12T14:34:18.004Z,1.70
2022-09-12T14:36:47.806Z,1.30
2022-09-12T14:39:32.160Z,1.73
2022-09-12T14:42:20.860Z,1.43
2022-09-12T14:45:01.287Z,1.97
2022-09-12T14:47:34.772Z,2.00
2022-09-12T14:50:01.786Z,1.90
2022-09-12T14:52:34.946Z,1.80
2022-09-12T14:55:23.799Z,1.80
2022-09-12T14:58:15.476Z,1.60
2022-09-12T15:01:06.742Z,1.40
2022-09-12T15:03:34.764Z,1.40
2022-09-12T15:06:03.936Z,1.30
2022-09-12T15:08:31.862Z,1.53
2022-09-12T15:10:59.331Z,1.53
2022-09-12T15:13:28.027Z,1.93
2022-09-12T15:15:56.754Z,1.60
2022-09-12T15:18:28.901Z,1.50
2022-09-12T15:20:57.927Z,1.63
2022-09-12T15:23:28.518Z,1.30
2022-09-12T15:25:55.131Z,1.57
2022-09-12T15:28:23.924Z,1.23
2022-09-12T15:30:53.283Z,1.40
2022-09-12T15:33:22.750Z,1.57
2022-09-12T15:35:50.317Z,1.57
2022-09-12T15:38:16.847Z,1.73
2022-09-12T15:40:43.603Z,1.47
2022-09-12T15:43:13.290Z,1.30
2022-09-12T15:45:42.913Z,1.83
2022-09-12T15:48:10.009Z,1.50
2022-09-12T15:50:36.507Z,1.87
2022-09-12T15:53:03.195Z,2.00
2022-09-12T15:55:32.204Z,1.90
2022-09-12T15:58:02.443Z,1.90
2022-09-12T16:00:31.881Z,1.93
2022-09-12T16:02:58.393Z,1.97
2022-09-12T16:05:26.732Z,1.73
2022-09-12T16:07:54.899Z,1.80
2022-09-12T16:10:24.325Z,1.80
2022-09-12T16:12:51.364Z,2.50
2022-09-12T16:15:21.059Z,2.07
2022-09-12T16:17:48.065Z,1.63
2022-09-12T16:20:14.925Z,1.73
2022-09-12T16:22:42.741Z,2.20
2022-09-12T16:25:10.161Z,2.00
2022-09-12T16:27:36.972Z,1.93
2022-09-12T16:30:06.266Z,1.80
2022-09-12T16:32:33.117Z,1.80
2022-09-12T16:34:59.987Z,2.23
2022-09-12T16:37:26.510Z,1.80
2022-09-12T16:39:53.760Z,1.83
2022-09-12T16:42:20.367Z,3.63
2022-09-12T16:44:47.463Z,2.50
2022-09-12T16:47:14.674Z,1.73
2022-09-12T16:49:41.173Z,1.73
2022-09-12T16:52:08.120Z,1.50
2022-09-12T16:54:34.716Z,1.90
2022-09-12T16:57:01.245Z,1.90
2022-09-12T16:59:27.761Z,1.93
2022-09-12T17:01:54.362Z,1.87
2022-09-12T17:04:23.579Z,1.57
2022-09-12T17:06:51.267Z,1.50
2022-09-12T17:09:18.541Z,1.90
2022-09-12T17:11:50.217Z,1.90
2022-09-12T17:14:17.061Z,1.83
2022-09-12T17:16:50.805Z,2.33
2022-09-12T17:19:26.393Z,2.17
2022-09-12T17:21:54.283Z,2.10
2022-09-12T17:24:21.230Z,2.40
2022-09-12T17:26:47.760Z,2.20
2022-09-12T17:29:15.659Z,3.07
2022-09-12T17:31:43.894Z,3.93
2022-09-12T17:34:14.217Z,3.77
2022-09-12T17:36:44.030Z,3.93
2022-09-12T17:39:11.594Z,3.40
2022-09-12T17:41:38.491Z,3.10
2022-09-12T17:44:07.236Z,2.83
2022-09-12T17:46:37.220Z,4.13
2022-09-12T17:49:06.821Z,3.47
2022-09-12T17:51:34.591Z,5.70
2022-09-12T17:54:11.598Z,3.80
2022-09-12T17:56:39.134Z,4.17
2022-09-12T17:59:13.241Z,3.60
2022-09-12T18:01:58.697Z,3.17
2022-09-12T18:04:25.381Z,2.90
2022-09-12T18:06:52.694Z,2.67
2022-09-12T18:09:23.221Z,2.87
2022-09-12T18:11:50.252Z,3.20
2022-09-12T18:14:17.574Z,2.73
2022-09-12T18:16:45.096Z,3.03
2022-09-12T18:19:12.251Z,2.50
2022-09-12T18:21:39.122Z,3.90
2022-09-12T18:24:05.692Z,5.20
2022-09-12T18:26:33.139Z,4.77
2022-09-12T18:29:00.129Z,4.30
2022-09-12T18:31:29.046Z,3.37
2022-09-12T18:33:57.731Z,3.70
2022-09-12T18:36:24.335Z,4.10
2022-09-12T18:38:51.234Z,3.90
2022-09-12T18:41:23.064Z,4.27
2022-09-12T18:43:57.513Z,6.10
2022-09-12T18:46:25.165Z,10.20
2022-09-12T18:48:52.242Z,5.53
2022-09-12T18:51:25.690Z,5.77
2022-09-12T18:53:56.035Z,4.93
2022-09-12T18:56:28.652Z,5.77
2022-09-12T18:58:56.665Z,8.60
2022-09-12T19:01:28.559Z,8.80
2022-09-12T19:03:55.469Z,6.70
2022-09-12T19:06:26.878Z,5.80
2022-09-12T19:08:55.262Z,5.90
2022-09-12T19:11:22.131Z,4.60
2022-09-12T19:13:50.601Z,3.53
2022-09-12T19:16:27.455Z,4.57
2022-09-12T19:18:58.223Z,3.83
2022-09-12T19:21:28.335Z,4.23
2022-09-12T19:24:00.934Z,3.80
2022-09-12T19:26:28.062Z,3.90
2022-09-12T19:28:55.225Z,5.13
2022-09-12T19:31:23.259Z,4.90
2022-09-12T19:33:52.069Z,5.20
2022-09-12T19:36:44.280Z,6.10
2022-09-12T19:39:08.443Z,5.30
2022-09-12T19:41:35.756Z,4.03
2022-09-12T19:44:04.114Z,4.73
2022-09-12T19:46:30.911Z,3.40
2022-09-12T19:48:58.615Z,3.17
2022-09-12T19:51:25.336Z,3.53
2022-09-12T19:53:53.258Z,2.90
2022-09-12T19:56:20.082Z,2.63
2022-09-12T19:58:51.027Z,2.73
2022-09-12T20:01:28.328Z,2.30
2022-09-12T20:03:56.891Z,2.13
2022-09-12T20:06:24.068Z,2.33
2022-09-12T20:08:51.663Z,2.53
2022-09-12T20:11:20.186Z,2.33
2022-09-12T20:13:47.765Z,2.40
2022-09-12T20:16:24.237Z,2.10
2022-09-12T20:18:57.015Z,2.20
2022-09-12T20:21:30.928Z,2.63
2022-09-12T20:24:12.154Z,3.03
2022-09-12T20:26:39.596Z,2.53
2022-09-12T20:29:06.674Z,2.27
2022-09-12T20:31:33.608Z,2.67
2022-09-12T20:34:00.699Z,2.57
2022-09-12T20:36:28.814Z,2.37
2022-09-12T20:38:58.123Z,2.23
2022-09-12T20:41:27.343Z,2.67
2022-09-12T20:43:55.474Z,2.50
2022-09-12T20:46:23.665Z,2.37
2022-09-12T20:48:52.638Z,4.33
2022-09-12T20:51:20.722Z,2.50
2022-09-12T20:53:47.970Z,2.67
2022-09-12T20:56:14.970Z,2.30
2022-09-12T20:58:44.072Z,2.73
2022-09-12T21:01:13.989Z,3.13
2022-09-12T21:03:42.162Z,3.07
2022-09-12T21:06:12.490Z,2.57
2022-09-12T21:08:39.768Z,3.00
2022-09-12T21:11:07.207Z,3.40
2022-09-12T21:13:34.239Z,3.00
2022-09-12T21:16:10.338Z,2.93
2022-09-12T21:18:37.499Z,3.63
2022-09-12T21:21:05.133Z,3.40
2022-09-12T21:23:32.048Z,3.27
2022-09-12T21:25:59.088Z,3.30
2022-09-12T21:28:26.542Z,3.30
2022-09-12T21:30:53.438Z,3.00
2022-09-12T21:33:21.044Z,3.00
2022-09-12T21:35:49.599Z,3.07
2022-09-12T21:38:17.161Z,3.30
2022-09-12T21:40:43.750Z,5.97
2022-09-12T21:43:12.894Z,14.30
2022-09-12T21:45:40.675Z,16.40
2022-09-12T21:48:07.866Z,9.47
2022-09-12T21:50:34.453Z,13.30
2022-09-12T21:53:00.935Z,7.60
2022-09-12T21:55:27.785Z,3.20
2022-09-12T21:57:54.744Z,3.50
2022-09-12T22:00:22.430Z,3.27
2022-09-12T22:02:49.011Z,3.70
2022-09-12T22:05:16.122Z,3.03
2022-09-12T22:07:42.642Z,3.20
2022-09-12T22:10:09.599Z,3.00
2022-09-12T22:12:36.066Z,3.10
2022-09-12T22:15:17.526Z,3.73
2022-09-12T22:17:49.165Z,3.10
2022-09-12T22:20:15.971Z,3.33
2022-09-12T22:23:00.913Z,3.07
2022-09-12T22:25:27.513Z,3.00
2022-09-12T22:27:54.921Z,2.50
2022-09-12T22:30:22.655Z,3.80
2022-09-12T22:32:51.418Z,3.10
2022-09-12T22:35:19.001Z,3.47
2022-09-12T22:37:47.490Z,3.40
2022-09-12T22:40:15.072Z,3.03
2022-09-12T22:42:41.690Z,2.53
2022-09-12T22:45:08.782Z,4.03
2022-09-12T22:47:35.395Z,3.30
2022-09-12T22:50:02.152Z,3.30
2022-09-12T22:52:28.646Z,3.57
2022-09-12T22:54:55.113Z,3.40
2022-09-12T22:57:21.780Z,2.80
2022-09-12T22:59:48.679Z,3.50
2022-09-12T23:02:15.158Z,2.90
2022-09-12T23:04:42.003Z,2.93
2022-09-12T23:07:08.515Z,3.27
2022-09-12T23:09:35.635Z,2.50
2022-09-12T23:12:03.790Z,3.37
2022-09-12T23:14:30.389Z,3.13
2022-09-12T23:16:57.005Z,3.10
2022-09-12T23:19:23.471Z,3.27
2022-09-12T23:21:50.454Z,3.30
2022-09-12T23:24:17.760Z,3.13
2022-09-12T23:26:44.253Z,3.33
2022-09-12T23:29:11.301Z,3.47
2022-09-12T23:31:38.456Z,3.20
2022-09-12T23:34:05.886Z,3.37
2022-09-12T23:36:33.483Z,3.57
2022-09-12T23:39:00.041Z,3.30
2022-09-12T23:41:27.081Z,3.40
2022-09-12T23:43:53.932Z,3.63
2022-09-12T23:46:21.161Z,3.67
2022-09-12T23:48:47.813Z,3.17
2022-09-12T23:51:14.878Z,3.60
2022-09-12T23:53:41.438Z,3.60
2022-09-12T23:56:08.198Z,3.17
2022-09-12T23:58:34.785Z,3.37
